Time;durP1;ratioP1;P1;durP2;ratioP2;P2;SDS_P1;SDS_P2;PMS_P1;PMS_P2;Temp;Humidity;BMP_temperature;BMP_pressure;BME280_temperature;BME280_humidity;BME280_pressure;Samples;Min_cycle;Max_cycle;Signal;HPM_P1;HPM_P2
2022/02/09 00:04:13;;;;;;;5.85;3.00;;;1.20;99.90;;;;;;4953131;28;20158;-49
2022/02/09 00:06:45;;;;;;;2.38;2.17;;;1.00;99.90;;;;;;4949440;28;20031;-48
2022/02/09 00:09:11;;;;;;;2.65;2.10;;;1.00;99.90;;;;;;4948037;28;20027;-48
2022/02/09 00:11:45;;;;;;;2.92;2.47;;;1.00;99.90;;;;;;4949302;28;20381;-49
2022/02/09 00:15:14;;;;;;;5.57;2.38;;;1.00;99.90;;;;;;4952026;28;20059;-49
2022/02/09 00:40:44;;;;;;;4.03;2.20;;;0.80;99.90;;;;;;4949420;28;20027;-49
2022/02/09 00:59:40;;;;;;;6.40;2.70;;;0.60;99.90;;;;;;4953465;28;20451;-50
2022/02/09 01:56:27;;;;;;;3.38;1.70;;;0.20;99.90;;;;;;4947090;28;20492;-49
2022/02/09 01:58:54;;;;;;;1.67;1.58;;;0.30;99.90;;;;;;4943335;28;20056;-50
2022/02/09 02:01:19;;;;;;;4.00;2.40;;;0.40;99.90;;;;;;4941594;28;20043;-49
2022/02/09 02:03:45;;;;;;;5.22;2.10;;;0.40;99.90;;;;;;4946798;28;20034;-49
2022/02/09 02:06:14;;;;;;;2.10;1.90;;;0.40;99.90;;;;;;4950542;28;20034;-49
2022/02/09 02:08:40;;;;;;;3.97;2.35;;;0.40;99.90;;;;;;4946042;28;20046;-49
2022/02/09 02:18:54;;;;;;;2.35;2.10;;;0.20;99.90;;;;;;4948959;28;20027;-49
2022/02/09 02:21:43;;;;;;;3.42;2.53;;;0.10;99.90;;;;;;4944204;28;20157;-49
2022/02/09 02:24:46;;;;;;;4.10;2.22;;;0.00;99.90;;;;;;4948043;28;20736;-49
2022/02/09 03:12:41;;;;;;;3.63;2.03;;;-0.10;99.90;;;;;;4943777;28;20074;-49
2022/02/09 03:20:47;;;;;;;3.75;3.00;;;-0.10;99.90;;;;;;4943110;28;20046;-49
2022/02/09 03:51:22;;;;;;;5.03;3.10;;;-0.90;99.90;;;;;;4920502;28;20055;-48
2022/02/09 03:53:55;;;;;;;;;;;-1.00;99.90;;;;;;4944311;28;20440;-49
2022/02/09 03:59:05;;;;;;;4.13;2.72;;;-1.10;99.90;;;;;;4941880;28;20046;-50
2022/02/09 04:01:35;;;;;;;1.90;1.80;;;-0.90;99.90;;;;;;4941236;28;20040;-49
2022/02/09 04:04:01;;;;;;;4.60;2.58;;;-0.90;99.90;;;;;;4936516;28;20027;-49
2022/02/09 04:06:32;;;;;;;3.35;2.30;;;-0.90;99.90;;;;;;4943003;28;20023;-49
2022/02/09 04:09:00;;;;;;;4.80;2.60;;;-0.90;99.90;;;;;;4941276;28;20031;-49
2022/02/09 04:11:35;;;;;;;4.03;2.90;;;-0.90;99.90;;;;;;4940655;28;20083;-49
2022/02/09 04:47:18;;;;;;;2.47;2.28;;;-0.90;99.90;;;;;;4939976;28;20051;-49
2022/02/09 04:57:47;;;;;;;2.67;2.53;;;-1.20;99.90;;;;;;4939181;28;20037;-49
2022/02/09 05:24:58;;;;;;;4.85;2.63;;;-1.20;99.90;;;;;;4938987;28;20042;-50
2022/02/09 05:28:11;;;;;;;4.35;2.60;;;-1.10;99.90;;;;;;4939568;28;20031;-49
2022/02/09 05:30:13;;;;;;;2.25;2.15;;;-1.10;99.90;;;;;;4943218;28;20139;-49
2022/02/09 05:32:39;;;;;;;2.85;2.50;;;-1.10;99.90;;;;;;4941039;28;20771;-49
2022/02/09 05:35:05;;;;;;;2.42;2.20;;;-1.20;99.90;;;;;;4939997;28;20042;-51
2022/02/09 05:37:31;;;;;;;2.28;2.13;;;-1.20;99.90;;;;;;4937101;28;20854;-49
2022/02/09 05:39:56;;;;;;;5.25;2.50;;;-1.30;99.90;;;;;;4939368;28;20031;-49
2022/02/09 05:42:22;;;;;;;3.75;2.72;;;-1.30;99.90;;;;;;4937884;28;21298;-49
2022/02/09 05:44:48;;;;;;;5.30;3.05;;;-1.40;99.90;;;;;;4938816;28;20019;-50
2022/02/09 05:50:32;;;;;;;2.25;2.15;;;-1.50;99.90;;;;;;4941856;28;21509;-50
2022/02/09 06:00:51;;;;;;;2.40;2.20;;;-1.60;99.90;;;;;;4936394;28;20035;-49
2022/02/09 06:03:17;;;;;;;4.47;3.08;;;-1.60;99.90;;;;;;4938146;28;20058;-49
2022/02/09 06:05:44;;;;;;;3.75;2.95;;;-1.60;99.90;;;;;;4935202;28;20417;-49
2022/02/09 06:08:10;;;;;;;2.60;2.40;;;-1.60;99.90;;;;;;4936678;28;20047;-50
2022/02/09 06:10:36;;;;;;;3.67;2.38;;;-1.60;99.90;;;;;;4937743;28;20541;-49
2022/02/09 06:21:19;;;;;;;3.90;2.67;;;-1.50;99.90;;;;;;4939164;28;20082;-49
2022/02/09 06:23:46;;;;;;;2.95;2.47;;;-1.50;99.90;;;;;;4938930;28;20038;-50
2022/02/09 06:26:12;;;;;;;2.80;2.60;;;-1.50;99.90;;;;;;4938616;28;20069;-50
2022/02/09 06:28:37;;;;;;;2.42;2.22;;;-1.60;99.90;;;;;;4938902;28;20114;-50
2022/02/09 06:31:03;;;;;;;5.35;3.00;;;-1.60;99.90;;;;;;4937696;28;20036;-49
2022/02/09 06:33:29;;;;;;;9.20;2.75;;;-1.60;99.90;;;;;;4936383;28;20808;-50
2022/02/09 06:35:57;;;;;;;2.47;2.38;;;-1.80;99.90;;;;;;4939460;28;20058;-49
2022/02/09 06:38:23;;;;;;;6.68;2.13;;;-1.80;99.90;;;;;;4939173;28;20266;-49
2022/02/09 06:40:53;;;;;;;3.55;2.78;;;-1.90;99.90;;;;;;4938232;28;20039;-49
2022/02/09 06:43:19;;;;;;;3.33;2.42;;;-1.80;99.90;;;;;;4939592;28;20035;-49
2022/02/09 06:45:45;;;;;;;2.72;2.28;;;-1.80;99.90;;;;;;4936968;28;20039;-49
2022/02/09 06:48:12;;;;;;;2.17;1.98;;;-1.80;99.90;;;;;;4936974;28;20118;-49
2022/02/09 06:50:42;;;;;;;2.78;2.42;;;-1.80;99.90;;;;;;4940021;28;20058;-49
2022/02/09 06:55:51;;;;;;;4.70;3.00;;;-1.80;99.90;;;;;;4939437;28;20038;-49
2022/02/09 06:58:21;;;;;;;4.93;3.75;;;-1.90;99.90;;;;;;4940438;28;20123;-49
2022/02/09 07:00:47;;;;;;;5.82;3.10;;;-1.90;99.90;;;;;;4937887;28;20067;-49
2022/02/09 07:03:13;;;;;;;2.33;2.17;;;-1.90;99.90;;;;;;4944206;28;20060;-49
2022/02/09 07:05:39;;;;;;;4.18;2.80;;;-1.90;99.90;;;;;;4947181;28;20035;-49
2022/02/09 07:08:05;;;;;;;6.07;3.90;;;-1.90;99.90;;;;;;4945076;28;20166;-49
2022/02/09 07:10:31;;;;;;;3.83;3.03;;;-1.90;99.90;;;;;;4935921;28;20086;-49
2022/02/09 07:12:56;;;;;;;5.60;3.00;;;-2.00;99.90;;;;;;4932650;28;20035;-49
2022/02/09 07:15:29;;;;;;;3.03;2.70;;;-1.90;99.90;;;;;;4936631;28;20046;-49
2022/02/09 07:17:56;;;;;;;2.97;2.38;;;-1.80;99.90;;;;;;4937629;28;20037;-50
2022/02/09 07:20:23;;;;;;;2.72;2.50;;;-1.80;99.90;;;;;;4937988;28;20882;-49
2022/02/09 07:22:52;;;;;;;6.57;3.47;;;-1.60;99.90;;;;;;4937401;28;20732;-49
2022/02/09 07:25:20;;;;;;;4.40;2.22;;;-1.50;99.90;;;;;;4937095;28;20757;-49
2022/02/09 07:27:52;;;;;;;4.10;2.92;;;-1.40;99.90;;;;;;4939799;28;20149;-49
2022/02/09 07:30:22;;;;;;;2.75;2.55;;;-1.30;99.90;;;;;;4937175;28;20594;-49
2022/02/09 07:32:51;;;;;;;3.13;2.83;;;-1.20;99.90;;;;;;4920534;29;20048;-49
2022/02/09 07:35:16;;;;;;;;;;;-1.20;99.90;;;;;;4920969;29;20090;-49
2022/02/09 07:37:42;;;;;;;2.70;2.50;;;-1.10;99.90;;;;;;4918602;29;19927;-49
2022/02/09 07:40:11;;;;;;;2.63;2.33;;;-1.00;99.90;;;;;;4921135;28;20032;-49
2022/02/09 07:42:43;;;;;;;4.57;2.80;;;-1.00;99.90;;;;;;4920211;29;20030;-49
2022/02/09 07:48:00;;;;;;;3.38;3.08;;;-0.80;99.90;;;;;;4922409;29;20063;-49
2022/02/09 07:53:44;;;;;;;5.72;3.10;;;-0.70;99.90;;;;;;4922592;29;21307;-49
2022/02/09 07:55:41;;;;;;;4.55;2.60;;;-0.60;99.90;;;;;;4916136;29;20039;-49
2022/02/09 07:58:07;;;;;;;8.50;3.22;;;-0.60;99.90;;;;;;4920257;28;20131;-49
2022/02/09 08:00:33;;;;;;;3.60;2.75;;;-0.50;99.90;;;;;;4922615;28;20090;-49
2022/02/09 08:03:00;;;;;;;4.93;2.90;;;-0.50;99.90;;;;;;4942052;28;20074;-50
2022/02/09 08:05:26;;;;;;;4.43;2.80;;;-0.40;99.90;;;;;;4938954;28;20035;-49
2022/02/09 08:07:53;;;;;;;3.05;2.42;;;-0.30;99.90;;;;;;4942930;28;21882;-49
2022/02/09 08:10:28;;;;;;;2.78;2.53;;;-0.30;99.90;;;;;;4943179;28;20034;-49
2022/02/09 08:24:07;;;;;;;10.02;3.78;;;0.00;99.90;;;;;;4939182;28;20078;-48
2022/02/09 08:29:27;;;;;;;4.95;3.08;;;0.10;99.90;;;;;;4935484;28;20026;-49
2022/02/09 08:34:28;;;;;;;10.38;4.47;;;0.10;99.90;;;;;;4938071;28;20066;-49
2022/02/09 08:36:55;;;;;;;5.07;3.72;;;0.10;99.90;;;;;;4939821;28;20131;-48
2022/02/09 08:39:20;;;;;;;4.20;3.58;;;0.20;99.90;;;;;;4940143;28;20034;-50
2022/02/09 08:41:47;;;;;;;6.53;3.35;;;0.20;99.90;;;;;;4940356;28;20031;-49
2022/02/09 08:44:12;;;;;;;2.63;2.42;;;0.20;99.90;;;;;;4939671;28;20089;-49
2022/02/09 08:46:42;;;;;;;3.95;3.22;;;0.20;99.90;;;;;;4939175;28;20471;-49
2022/02/09 08:49:12;;;;;;;5.65;2.72;;;0.30;99.90;;;;;;4940365;28;20496;-49
2022/02/09 08:51:38;;;;;;;2.95;2.67;;;0.30;99.90;;;;;;4939127;28;20046;-49
2022/02/09 08:54:04;;;;;;;3.45;3.20;;;0.40;99.90;;;;;;4940706;28;20027;-49
2022/02/09 08:56:30;;;;;;;3.63;3.30;;;0.40;99.90;;;;;;4940568;28;20035;-49
2022/02/09 08:58:58;;;;;;;8.63;2.90;;;0.60;99.90;;;;;;4939944;28;20034;-49
2022/02/09 09:01:40;;;;;;;2.75;2.55;;;0.70;99.90;;;;;;4939739;28;20597;-48
2022/02/09 09:04:25;;;;;;;3.53;2.80;;;0.80;99.90;;;;;;4938789;28;20031;-49
2022/02/09 09:06:55;;;;;;;3.63;2.78;;;0.90;99.90;;;;;;4940017;28;20035;-49
2022/02/09 09:09:27;;;;;;;4.20;3.55;;;1.00;99.90;;;;;;4938848;28;20027;-48
2022/02/09 09:31:14;;;;;;;2.80;2.50;;;1.90;99.90;;;;;;4936854;28;20038;-49
2022/02/09 10:35:33;;;;;;;2.88;2.35;;;4.70;99.90;;;;;;4916420;28;20051;-49
2022/02/09 10:38:23;;;;;;;3.60;2.92;;;4.70;99.90;;;;;;4935244;28;20612;-48
2022/02/09 10:40:52;;;;;;;2.30;2.10;;;4.80;99.90;;;;;;4940350;28;20039;-49
2022/02/09 10:43:32;;;;;;;4.78;2.33;;;4.90;99.90;;;;;;4939129;28;20097;-49
2022/02/09 10:46:22;;;;;;;3.20;2.40;;;5.00;99.90;;;;;;4944000;28;20027;-49
2022/02/09 10:48:55;;;;;;;3.72;2.22;;;5.10;99.90;;;;;;4939745;28;20162;-48
2022/02/09 10:52:05;;;;;;;2.58;2.05;;;5.20;99.90;;;;;;4940098;28;20553;-49
2022/02/09 10:54:25;;;;;;;3.72;1.92;;;5.30;99.90;;;;;;4942203;28;20122;-48
2022/02/09 10:56:55;;;;;;;5.43;2.35;;;5.40;99.90;;;;;;4940882;28;20058;-49
2022/02/09 10:59:23;;;;;;;4.07;2.08;;;5.50;99.90;;;;;;4940921;28;20045;-49
2022/02/09 11:01:49;;;;;;;4.95;2.20;;;5.60;99.90;;;;;;4941327;28;20035;-49
2022/02/09 11:04:14;;;;;;;3.53;2.55;;;5.60;99.90;;;;;;4939552;28;20023;-49
2022/02/09 11:06:42;;;;;;;54.47;18.73;;;5.60;99.90;;;;;;4941595;28;20489;-49
2022/02/09 11:09:11;;;;;;;40.90;14.90;;;5.60;99.90;;;;;;4939975;28;20030;-50
2022/02/09 11:11:40;;;;;;;10.07;5.78;;;5.70;99.90;;;;;;4942347;28;20051;-49
2022/02/09 11:14:15;;;;;;;4.30;3.58;;;5.80;99.90;;;;;;4942984;28;20028;-49
2022/02/09 11:16:42;;;;;;;3.90;2.50;;;5.80;99.90;;;;;;4941713;28;20081;-51
2022/02/09 11:19:09;;;;;;;3.33;3.03;;;5.80;99.90;;;;;;4940502;28;20031;-49
2022/02/09 11:21:37;;;;;;;3.35;2.78;;;5.80;99.90;;;;;;4944259;28;20832;-49
2022/02/09 11:24:22;;;;;;;9.27;4.53;;;5.90;99.90;;;;;;4942345;28;20031;-49
2022/02/09 11:32:17;;;;;;;3.83;3.42;;;6.00;99.90;;;;;;4940408;28;20028;-49
2022/02/09 11:34:48;;;;;;;4.20;3.42;;;6.10;99.90;;;;;;4943826;28;20046;-49
2022/02/09 11:37:23;;;;;;;4.05;3.55;;;6.20;99.90;;;;;;4940238;28;20039;-49
2022/02/09 11:39:51;;;;;;;4.10;2.85;;;6.20;99.90;;;;;;4944356;28;20019;-49
2022/02/09 11:42:51;;;;;;;4.10;3.63;;;6.30;99.90;;;;;;4942046;28;20030;-49
2022/02/09 11:45:43;;;;;;;3.00;2.38;;;6.40;99.90;;;;;;4941446;28;20409;-48
2022/02/09 11:48:51;;;;;;;4.13;3.10;;;6.40;99.90;;;;;;4960317;28;20073;-48
2022/02/09 12:14:22;;;;;;;2.65;2.00;;;7.20;99.90;;;;;;4945197;28;20050;-50
2022/02/09 12:16:46;;;;;;;3.95;2.15;;;7.20;99.90;;;;;;4946239;28;20846;-49
2022/02/09 12:19:25;;;;;;;3.55;2.50;;;7.20;99.90;;;;;;4943924;28;20100;-48
2022/02/09 12:22:04;;;;;;;3.53;2.20;;;7.20;99.90;;;;;;4949360;28;20969;-49
2022/02/09 12:24:34;;;;;;;5.18;2.25;;;7.20;99.90;;;;;;4944406;28;20027;-49
2022/02/09 12:27:08;;;;;;;5.18;2.08;;;7.30;99.90;;;;;;4959002;28;20038;-49
2022/02/09 12:29:43;;;;;;;2.92;1.92;;;7.40;99.90;;;;;;4945916;28;20050;-48
2022/02/09 12:32:14;;;;;;;2.42;2.22;;;7.50;99.90;;;;;;4944252;28;20601;-49
2022/02/09 12:34:52;;;;;;;2.50;2.20;;;7.50;99.90;;;;;;4942557;28;20035;-49
2022/02/09 12:37:17;;;;;;;2.10;1.90;;;7.60;99.90;;;;;;4939500;28;20054;-49
2022/02/09 12:39:54;;;;;;;3.00;1.80;;;7.70;99.90;;;;;;4941510;28;20413;-49
2022/02/09 12:42:21;;;;;;;6.38;2.10;;;7.70;99.90;;;;;;4941452;28;20073;-49
2022/02/09 12:45:01;;;;;;;10.73;1.98;;;7.70;99.90;;;;;;4942917;28;20050;-48
2022/02/09 12:47:37;;;;;;;3.80;2.30;;;7.80;99.90;;;;;;4941435;28;20031;-48
2022/02/09 12:50:07;;;;;;;5.00;1.70;;;7.80;99.90;;;;;;4941608;28;20130;-47
2022/02/09 12:52:35;;;;;;;4.70;1.77;;;7.90;99.90;;;;;;4941787;28;20035;-47
2022/02/09 12:55:15;;;;;;;4.78;1.90;;;7.90;99.90;;;;;;4941788;28;20153;-47
2022/02/09 12:57:41;;;;;;;5.40;2.00;;;8.00;99.90;;;;;;4940268;28;20031;-47
2022/02/09 13:00:20;;;;;;;2.35;1.60;;;8.00;99.90;;;;;;4942175;28;20042;-46
2022/02/09 13:02:46;;;;;;;2.05;1.40;;;8.00;99.90;;;;;;4959138;28;20439;-47
2022/02/09 13:05:12;;;;;;;2.17;1.60;;;8.10;99.90;;;;;;4941780;28;20054;-47
2022/02/09 13:07:39;;;;;;;5.22;1.77;;;8.10;99.90;;;;;;4944778;28;20027;-47
2022/02/09 13:10:06;;;;;;;2.53;1.75;;;8.10;99.90;;;;;;4940825;28;20039;-47
2022/02/09 13:12:33;;;;;;;3.08;1.50;;;8.10;99.90;;;;;;4941509;28;20113;-47
2022/02/09 13:15:18;;;;;;;5.20;1.83;;;8.30;99.90;;;;;;4939470;28;20031;-47
2022/02/09 13:18:28;;;;;;;2.38;1.27;;;8.40;99.90;;;;;;4942174;28;20082;-47
2022/02/09 14:53:07;;;;;;;1.65;1.17;;;11.00;94.60;;;;;;4940442;28;20361;-47
2022/02/09 14:58:10;;;;;;;1.17;1.08;;;11.90;93.30;;;;;;4941847;28;20106;-48
2022/02/09 15:00:49;;;;;;;1.75;1.25;;;12.20;89.30;;;;;;4939961;28;20047;-47
2022/02/09 15:06:21;;;;;;;3.58;1.30;;;12.50;86.40;;;;;;4938606;28;20039;-47
2022/02/09 15:08:51;;;;;;;1.95;1.27;;;12.60;84.40;;;;;;4941368;28;20031;-47
2022/02/09 15:16:35;;;;;;;3.05;1.15;;;11.80;86.20;;;;;;4940146;28;20524;-48
2022/02/09 15:24:20;;;;;;;2.38;1.45;;;12.00;87.40;;;;;;4943101;28;20042;-48
2022/02/09 15:26:48;;;;;;;;;;;12.00;90.10;;;;;;4938604;28;20035;-48
2022/02/09 15:29:16;;;;;;;1.38;1.27;;;12.00;88.70;;;;;;4941968;28;20667;-48
2022/02/09 15:31:56;;;;;;;1.23;1.13;;;12.10;91.70;;;;;;4934015;28;20056;-48
2022/02/09 15:39:14;;;;;;;2.40;1.30;;;12.40;92.50;;;;;;4926465;29;20134;-48
2022/02/09 16:22:35;;;;;;;;;;;9.70;97.40;;;;;;4944540;28;20026;-48
2022/02/09 16:44:19;;;;;;;20.75;10.95;;;8.60;99.90;;;;;;4903262;29;20047;-47
2022/02/09 16:44:20;;;;;;;26.55;12.98;;;8.40;99.90;;;;;;4942405;28;20408;-47
2022/02/09 16:46:56;;;;;;;28.45;10.13;;;8.20;99.90;;;;;;4940895;28;20130;-47
2022/02/09 16:49:31;;;;;;;28.70;10.32;;;8.00;99.90;;;;;;4941972;28;20403;-47
2022/02/09 16:52:07;;;;;;;18.98;8.82;;;7.80;99.90;;;;;;4940860;28;20465;-47
2022/02/09 16:54:47;;;;;;;17.17;5.63;;;7.70;99.90;;;;;;4938497;28;20129;-47
2022/02/09 17:19:02;;;;;;;9.13;4.55;;;6.40;99.90;;;;;;4945151;28;20539;-47
2022/02/09 17:21:31;;;;;;;9.02;4.97;;;6.40;99.90;;;;;;4941367;28;20476;-47
2022/02/09 17:24:02;;;;;;;4.85;3.53;;;6.20;99.90;;;;;;4944314;28;20521;-47
2022/02/09 17:26:29;;;;;;;7.40;3.67;;;6.10;99.90;;;;;;4944508;28;20551;-47
2022/02/09 17:29:19;;;;;;;5.03;2.88;;;6.10;99.90;;;;;;4947238;28;20035;-47
2022/02/09 17:31:52;;;;;;;5.75;2.80;;;6.00;99.90;;;;;;4944741;28;20047;-47
2022/02/09 17:37:01;;;;;;;5.45;3.15;;;5.80;99.90;;;;;;4944804;28;20114;-48
2022/02/09 17:56:21;;;;;;;9.50;5.82;;;5.00;99.90;;;;;;4945253;28;20039;-48
2022/02/09 17:58:49;;;;;;;10.00;5.72;;;5.00;99.90;;;;;;4943366;28;20039;-48
2022/02/09 18:01:18;;;;;;;9.10;6.10;;;4.90;99.90;;;;;;4946909;28;20042;-47
2022/02/09 18:03:44;;;;;;;12.25;6.40;;;4.90;99.90;;;;;;4940578;28;20322;-47
2022/02/09 18:30:52;;;;;;;10.45;5.55;;;3.70;99.90;;;;;;4952400;28;20152;-47
2022/02/09 18:39:13;;;;;;;9.13;5.93;;;3.60;99.90;;;;;;4941318;28;20400;-47
2022/02/09 18:44:16;;;;;;;8.55;5.00;;;3.60;99.90;;;;;;4939307;28;20480;-47
2022/02/09 18:58:55;;;;;;;8.80;5.53;;;2.90;99.90;;;;;;4959201;28;20887;-47
2022/02/09 19:03:36;;;;;;;12.02;6.05;;;2.90;99.90;;;;;;4935590;28;20477;-47
2022/02/09 19:06:15;;;;;;;14.25;7.43;;;2.80;99.90;;;;;;4943973;28;20035;-47
2022/02/09 19:14:09;;;;;;;16.85;7.20;;;2.80;99.90;;;;;;4944085;28;20587;-47
2022/02/09 19:14:42;;;;;;;6.15;5.28;;;2.70;99.90;;;;;;4942356;28;20033;-47
2022/02/09 19:17:19;;;;;;;8.85;6.35;;;2.60;99.90;;;;;;4943197;28;20035;-47
2022/02/09 19:46:45;;;;;;;28.90;12.30;;;2.20;99.90;;;;;;4938460;28;20488;-48
2022/02/09 19:49:37;;;;;;;12.65;4.70;;;2.20;99.90;;;;;;4940488;28;20048;-46
2022/02/09 19:52:53;;;;;;;7.03;4.57;;;2.10;99.90;;;;;;4936895;28;20039;-47
2022/02/09 19:55:08;;;;;;;10.00;5.05;;;1.90;99.90;;;;;;4938400;28;20058;-48
2022/02/09 19:57:37;;;;;;;14.10;6.80;;;1.70;99.90;;;;;;4938290;28;20046;-48
2022/02/09 20:00:07;;;;;;;8.73;5.20;;;1.60;99.90;;;;;;4936453;28;20549;-49
2022/02/09 20:02:33;;;;;;;7.57;4.25;;;1.40;99.90;;;;;;4935435;28;20235;-49
2022/02/09 20:05:02;;;;;;;10.05;5.25;;;1.30;99.90;;;;;;4931255;28;20218;-48
2022/02/09 20:07:28;;;;;;;7.30;4.00;;;1.30;99.90;;;;;;4932845;28;21034;-49
2022/02/09 20:09:54;;;;;;;5.57;3.75;;;1.20;99.90;;;;;;4931378;28;20058;-49
2022/02/09 20:12:19;;;;;;;5.55;3.45;;;1.00;99.90;;;;;;4930364;28;20123;-49
2022/02/09 20:14:48;;;;;;;4.68;3.35;;;0.90;99.90;;;;;;4932649;28;20122;-49
2022/02/09 20:17:14;;;;;;;5.45;3.60;;;0.90;99.90;;;;;;4931035;28;20425;-48
2022/02/09 20:19:43;;;;;;;3.85;3.45;;;0.90;99.90;;;;;;4933272;28;20723;-48
2022/02/09 20:22:08;;;;;;;5.47;3.80;;;0.80;99.90;;;;;;4934473;28;20038;-48
2022/02/09 20:24:34;;;;;;;6.03;3.97;;;0.80;99.90;;;;;;4930869;28;20035;-48
2022/02/09 20:27:04;;;;;;;7.70;4.93;;;0.80;99.90;;;;;;4932795;28;20067;-48
2022/02/09 20:29:31;;;;;;;6.60;4.28;;;0.80;99.90;;;;;;4931457;28;20031;-48
2022/02/09 20:32:23;;;;;;;5.75;3.72;;;0.80;99.90;;;;;;4930792;28;20451;-48
2022/02/09 20:35:04;;;;;;;5.68;4.15;;;0.70;99.90;;;;;;4930290;28;20428;-48
2022/02/09 20:37:31;;;;;;;4.20;3.55;;;0.60;99.90;;;;;;4932402;28;20071;-48
2022/02/09 20:40:07;;;;;;;3.78;3.00;;;0.50;99.90;;;;;;4932347;28;20034;-48
2022/02/09 20:42:33;;;;;;;7.28;4.05;;;0.50;99.90;;;;;;4932076;28;20038;-48
2022/02/09 20:45:08;;;;;;;6.30;3.83;;;0.50;99.90;;;;;;4932598;28;20062;-49
2022/02/09 20:47:33;;;;;;;3.50;3.15;;;0.50;99.90;;;;;;4934520;28;20031;-48
2022/02/09 20:49:59;;;;;;;3.80;3.40;;;0.40;99.90;;;;;;4938249;28;20077;-49
2022/02/09 20:52:25;;;;;;;6.85;3.92;;;0.30;99.90;;;;;;4937681;28;20086;-48
2022/02/09 20:54:52;;;;;;;5.57;3.95;;;0.20;99.90;;;;;;4936562;28;20039;-48
2022/02/09 20:57:18;;;;;;;4.50;3.60;;;0.10;99.90;;;;;;4936679;28;20039;-49
2022/02/09 20:59:48;;;;;;;7.90;4.10;;;0.10;99.90;;;;;;4937726;28;20031;-48
2022/02/09 21:04:55;;;;;;;7.33;3.97;;;0.00;99.90;;;;;;4936359;28;21601;-48
2022/02/09 21:07:34;;;;;;;6.25;3.70;;;0.10;99.90;;;;;;4938208;28;20357;-48
2022/02/09 21:10:24;;;;;;;;;;;0.00;99.90;;;;;;4939821;28;20039;-48
2022/02/09 21:12:54;;;;;;;4.63;3.42;;;-0.10;99.90;;;;;;4935503;28;19930;-48
2022/02/09 21:19:46;;;;;;;8.43;4.68;;;0.20;99.90;;;;;;5071042;27;21109;-47
2022/02/09 21:54:33;;;;;;;4.57;3.70;;;-0.40;99.90;;;;;;5028769;28;20661;-50
2022/02/09 21:57:15;;;;;;;6.80;4.40;;;-0.30;99.90;;;;;;5030497;28;20033;-48
2022/02/09 22:16:27;;;;;;;7.53;4.28;;;-0.30;99.90;;;;;;5026712;28;20131;-48
2022/02/09 22:50:07;;;;;;;4.95;3.05;;;-0.80;99.90;;;;;;5007283;28;20128;-47
2022/02/09 22:55:23;;;;;;;6.38;3.67;;;-0.80;99.90;;;;;;5012023;28;20034;-47
2022/02/09 22:58:00;;;;;;;4.40;3.22;;;-0.70;99.90;;;;;;5009281;28;20052;-47
2022/02/09 23:03:51;;;;;;;5.63;3.10;;;-0.70;99.90;;;;;;5020234;28;20407;-47
2022/02/09 23:06:27;;;;;;;5.70;3.50;;;-0.70;99.90;;;;;;5020695;28;20034;-48
